Sichem Eagle — 9HRB9 — position and weather

sailwx.info

Track history (hours):
 
Tides and Currents Weather Stations Pressure Air Temp Water Temp Dewpoint Dewpoint Depression Visibility Wind Speed Wind Dir Waves Ship Positions

Sichem Eagle

Last reported at 2018-May-30 03:15 UTC. Time now 2018-Jun-21 14:11 UTC.
Position N 26°14' W 079°08'.
Warning: this ship's position is 22 days out of date.

Length 171 m; draft 9.1 m.

Type: Tanker. MMSI: 249512000.

Date/timePositionNaut miles runAvg speedWind from/ knotsBaromVisibWave heightAir tempDewpointWater temp
2018-May-30 03:15N 26°14' W 079°08'2214.3
2018-May-30 01:45N 26°02' W 079°27'416.4
2018-May-30 01:30N 25°58' W 079°28'816.5
2018-May-30 01:00N 25°49' W 079°29'916.5
2018-May-30 00:29N 25°41' W 079°29'816.4
2018-May-29 23:59N 25°33' W 079°30'  
2018-May-27 03:36N 28°43' W 094°25'213.6
2018-May-27 03:27N 28°45' W 094°25'713.1
2018-May-27 02:57N 28°52' W 094°25'612.7
2018-May-27 02:30N 28°58' W 094°25'712.9
2018-May-27 01:59N 29°04' W 094°25'612.3
2018-May-27 01:28N 29°10' W 094°29'612.9
2018-May-27 01:00N 29°14' W 094°33'611.6
2018-May-27 00:30N 29°19' W 094°38'612.8
2018-May-27 00:00N 29°21' W 094°45'611.6
2018-May-26 23:30N 29°25' W 094°49'612.0
2018-May-26 23:01N 29°30' W 094°52'611.7
2018-May-26 22:30N 29°35' W 094°56'510.7
2018-May-26 22:00N 29°40' W 094°59'4 8.4
2018-May-26 21:30N 29°43' W 095°01'4 8.1
2018-May-26 21:01N 29°46' W 095°05'3 6.1
2018-May-26 20:30N 29°44' W 095°08'3 5.6
2018-May-26 20:00N 29°45' W 095°11'2 4.5
2018-May-26 19:30N 29°43' W 095°13'3 4.3
2018-May-26 18:50N 29°44' W 095°17'1 0.0
2018-May-24 22:08N 29°45' W 095°17'0 0.8
2018-May-24 22:00N 29°45' W 095°17'1 2.4
2018-May-24 21:27N 29°44' W 095°17'2 4.6
2018-May-24 21:00N 29°43' W 095°14'3 5.1
2018-May-24 20:30N 29°45' W 095°12'3 5.9
2018-May-24 20:00N 29°44' W 095°08'4 6.6
2018-May-24 19:27N 29°46' W 095°05'4 8.3
2018-May-24 19:00N 29°44' W 095°01'4 8.1
2018-May-24 18:30N 29°40' W 094°59'4 7.9
2018-May-24 18:01N 29°37' W 094°57'611.3
2018-May-24 17:30N 29°32' W 094°54'613.0
2018-May-24 17:00N 29°26' W 094°50'612.9
2018-May-24 16:31N 29°21' W 094°46'612.3
2018-May-24 16:00N 29°19' W 094°39'510.3
2018-May-24 15:30N 29°17' W 094°34'510.7
2018-May-24 15:00N 29°13' W 094°29'610.7
2018-May-24 14:28N 29°09' W 094°25'  
Track history (hours):
 
Tides and Currents Weather Stations Pressure Air Temp Water Temp Dewpoint Dewpoint Depression Visibility Wind Speed Wind Dir Waves Ship Positions

Sichem Eagle

Last reported at 2018-May-30 03:15 UTC. Time now 2018-Jun-21 14:11 UTC.
Position N 26°14' W 079°08'.
Warning: this ship's position is 22 days out of date.

Length 171 m; draft 9.1 m.

Type: Tanker. MMSI: 249512000.

Date/timePositionNaut miles runAvg speedWind from/ knotsBaromVisibWave heightAir tempDewpointWater temp
2018-May-30 03:15N 26°14' W 079°08'2214.3
2018-May-30 01:45N 26°02' W 079°27'416.4
2018-May-30 01:30N 25°58' W 079°28'816.5
2018-May-30 01:00N 25°49' W 079°29'916.5
2018-May-30 00:29N 25°41' W 079°29'816.4
2018-May-29 23:59N 25°33' W 079°30'  
2018-May-27 03:36N 28°43' W 094°25'213.6
2018-May-27 03:27N 28°45' W 094°25'713.1
2018-May-27 02:57N 28°52' W 094°25'612.7
2018-May-27 02:30N 28°58' W 094°25'712.9
2018-May-27 01:59N 29°04' W 094°25'612.3
2018-May-27 01:28N 29°10' W 094°29'612.9
2018-May-27 01:00N 29°14' W 094°33'611.6
2018-May-27 00:30N 29°19' W 094°38'612.8
2018-May-27 00:00N 29°21' W 094°45'611.6
2018-May-26 23:30N 29°25' W 094°49'612.0
2018-May-26 23:01N 29°30' W 094°52'611.7
2018-May-26 22:30N 29°35' W 094°56'510.7
2018-May-26 22:00N 29°40' W 094°59'4 8.4
2018-May-26 21:30N 29°43' W 095°01'4 8.1
2018-May-26 21:01N 29°46' W 095°05'3 6.1
2018-May-26 20:30N 29°44' W 095°08'3 5.6
2018-May-26 20:00N 29°45' W 095°11'2 4.5
2018-May-26 19:30N 29°43' W 095°13'3 4.3
2018-May-26 18:50N 29°44' W 095°17'1 0.0
2018-May-24 22:08N 29°45' W 095°17'0 0.8
2018-May-24 22:00N 29°45' W 095°17'1 2.4
2018-May-24 21:27N 29°44' W 095°17'2 4.6
2018-May-24 21:00N 29°43' W 095°14'3 5.1
2018-May-24 20:30N 29°45' W 095°12'3 5.9
2018-May-24 20:00N 29°44' W 095°08'4 6.6
2018-May-24 19:27N 29°46' W 095°05'4 8.3
2018-May-24 19:00N 29°44' W 095°01'4 8.1
2018-May-24 18:30N 29°40' W 094°59'4 7.9
2018-May-24 18:01N 29°37' W 094°57'611.3
2018-May-24 17:30N 29°32' W 094°54'613.0
2018-May-24 17:00N 29°26' W 094°50'612.9
2018-May-24 16:31N 29°21' W 094°46'612.3
2018-May-24 16:00N 29°19' W 094°39'510.3
2018-May-24 15:30N 29°17' W 094°34'510.7
2018-May-24 15:00N 29°13' W 094°29'610.7
2018-May-24 14:28N 29°09' W 094°25'  

Dump ship's entire track history